aviador You're here:

KTOL Decoded Metar

TOLEDO in OH, USA
Report Time2018-01-22 01:26:00
UTC Time2018-01-22 01:56:05
Flight Rules lifr LIFR
WindCalm
Visibility402 m
Phenomena:Fog
Clouds:N/A
Ceiling200 ft
Temp06°C (ISA -8)
Dew Point06°C (100% RH)
AAT5.1°C
QNH1016 hPa
Density Alt-203 ft
Elevation689 ft
Report Wrong Elevation
Raw Report
KTOL 220126Z 00000KT 1/4SM FG VV002 06/06 A3001=

Extra information for KTOL:More info

Metar Taf Metar & Taf Last 4 Metars F.Rules Stats Wind Profile Meteogram Temp Stats Airport Information Weather charts Add Link Nearby VenuesMetar ALERT Operation Metar Decoded Social comments

AIRNAV info for KTOL